createdAt,value
2022-09-30T00:01:58.748Z,17.70
2022-09-30T00:04:27.133Z,19.10
2022-09-30T00:06:55.450Z,21.40
2022-09-30T00:09:24.034Z,20.00
2022-09-30T00:11:52.855Z,19.80
2022-09-30T00:14:23.817Z,19.40
2022-09-30T00:16:52.625Z,20.00
2022-09-30T00:19:21.135Z,21.70
2022-09-30T00:21:49.593Z,17.60
2022-09-30T00:24:18.995Z,18.00
2022-09-30T00:26:47.265Z,14.60
2022-09-30T00:29:15.642Z,15.30
2022-09-30T00:31:43.806Z,14.30
2022-09-30T00:34:12.325Z,16.20
2022-09-30T00:36:50.809Z,16.50
2022-09-30T00:39:21.949Z,16.20
2022-09-30T00:41:52.955Z,16.00
2022-09-30T00:44:52.944Z,15.60
2022-09-30T00:47:49.349Z,17.30
2022-09-30T00:50:39.327Z,18.10
2022-09-30T00:53:13.959Z,19.20
2022-09-30T00:55:48.186Z,19.70
2022-09-30T00:58:27.760Z,19.00
2022-09-30T01:00:59.531Z,22.00
2022-09-30T01:03:32.357Z,18.70
2022-09-30T01:06:00.626Z,21.30
2022-09-30T01:08:32.602Z,17.80
2022-09-30T01:11:04.518Z,19.60
2022-09-30T01:13:37.439Z,15.90
2022-09-30T01:16:12.477Z,18.00
2022-09-30T01:18:47.519Z,18.30
2022-09-30T01:22:05.250Z,17.70
2022-09-30T01:24:55.033Z,14.30
2022-09-30T01:27:43.384Z,16.70
2022-09-30T01:30:20.312Z,18.00
2022-09-30T01:32:57.558Z,16.70
2022-09-30T01:35:34.531Z,16.20
2022-09-30T01:38:13.147Z,16.50
2022-09-30T01:40:59.748Z,18.70
2022-09-30T01:43:36.147Z,16.60
2022-09-30T01:46:17.750Z,16.80
2022-09-30T01:49:16.904Z,20.10
2022-09-30T01:51:57.791Z,14.80
2022-09-30T01:54:45.944Z,13.70
2022-09-30T01:57:33.350Z,16.40
2022-09-30T02:00:08.091Z,15.60
2022-09-30T02:02:57.105Z,14.40
2022-09-30T02:05:31.942Z,17.70
2022-09-30T02:08:23.900Z,14.00
2022-09-30T02:11:17.755Z,17.50
2022-09-30T02:13:55.496Z,16.40
2022-09-30T02:16:47.196Z,16.90
2022-09-30T02:19:37.836Z,15.50
2022-09-30T02:22:22.249Z,17.30
2022-09-30T02:24:57.082Z,15.90
2022-09-30T02:27:32.429Z,17.20
2022-09-30T02:30:04.489Z,18.00
2022-09-30T02:32:38.867Z,20.40
2022-09-30T02:35:12.184Z,17.80
2022-09-30T02:37:54.671Z,19.10
2022-09-30T02:40:39.946Z,16.20
2022-09-30T02:43:09.683Z,17.60
2022-09-30T02:45:53.650Z,16.40
2022-09-30T02:48:24.886Z,17.70
2022-09-30T02:51:04.071Z,18.40
2022-09-30T02:54:04.491Z,17.70
2022-09-30T02:56:54.386Z,19.40
2022-09-30T02:59:27.124Z,18.70
2022-09-30T03:01:55.459Z,20.40
2022-09-30T03:04:31.142Z,20.40
2022-09-30T03:07:02.201Z,21.40
2022-09-30T03:09:30.433Z,19.30
2022-09-30T03:12:24.342Z,18.40
2022-09-30T03:15:28.243Z,18.30
2022-09-30T03:18:09.746Z,21.10
2022-09-30T03:20:38.014Z,16.80
2022-09-30T03:23:37.309Z,19.90
2022-09-30T03:26:08.672Z,20.00
2022-09-30T03:29:01.888Z,20.70
2022-09-30T03:31:36.090Z,20.30
2022-09-30T03:34:10.146Z,21.10
2022-09-30T03:36:40.062Z,20.70
2022-09-30T03:39:18.074Z,21.40
2022-09-30T03:42:35.705Z,23.00
2022-09-30T03:45:30.109Z,24.80
2022-09-30T03:48:03.772Z,21.70
2022-09-30T03:50:34.012Z,21.20
2022-09-30T03:53:04.565Z,21.30
2022-09-30T03:55:33.553Z,21.00
2022-09-30T03:58:02.434Z,19.20
2022-09-30T04:00:32.703Z,17.60
2022-09-30T04:03:00.925Z,18.50
2022-09-30T04:05:29.044Z,20.30
2022-09-30T04:07:57.140Z,18.60
2022-09-30T04:10:25.451Z,19.70
2022-09-30T04:12:55.016Z,21.60
2022-09-30T04:15:23.420Z,20.70
2022-09-30T04:17:51.624Z,17.90
2022-09-30T04:20:20.016Z,19.30
2022-09-30T04:22:48.168Z,17.80
2022-09-30T04:25:16.631Z,20.60
2022-09-30T04:27:44.938Z,19.90
2022-09-30T04:30:13.115Z,20.70
2022-09-30T04:32:45.726Z,19.20
2022-09-30T04:35:15.590Z,18.50
2022-09-30T04:37:46.017Z,18.60
2022-09-30T04:40:16.558Z,20.90
2022-09-30T04:42:46.041Z,19.50
2022-09-30T04:45:14.600Z,20.10
2022-09-30T04:47:45.790Z,18.90
2022-09-30T04:50:14.475Z,20.40
2022-09-30T04:52:44.494Z,19.90
2022-09-30T04:55:13.886Z,21.20
2022-09-30T04:57:45.649Z,21.20
2022-09-30T05:00:13.837Z,19.10
2022-09-30T05:02:45.030Z,19.80
2022-09-30T05:05:14.518Z,21.20
2022-09-30T05:07:42.931Z,22.10
2022-09-30T05:10:12.160Z,21.10
2022-09-30T05:12:41.246Z,22.50
2022-09-30T05:15:15.766Z,20.70
2022-09-30T05:17:44.355Z,20.10
2022-09-30T05:20:12.839Z,19.60
2022-09-30T05:22:41.113Z,22.70
2022-09-30T05:25:09.800Z,26.50
2022-09-30T05:27:37.966Z,23.40
2022-09-30T05:30:06.864Z,22.10
2022-09-30T05:32:35.339Z,22.90
2022-09-30T05:35:04.123Z,22.90
2022-09-30T05:37:33.784Z,22.40
2022-09-30T05:40:02.359Z,19.80
2022-09-30T05:42:34.345Z,24.40
2022-09-30T05:45:05.122Z,22.90
2022-09-30T05:47:34.729Z,23.00
2022-09-30T05:50:02.874Z,22.20
2022-09-30T05:52:31.896Z,23.50
2022-09-30T05:55:01.905Z,21.40
2022-09-30T05:57:30.857Z,22.70
2022-09-30T05:59:59.372Z,23.80
2022-09-30T06:02:27.709Z,23.50
2022-09-30T06:04:56.046Z,21.00
2022-09-30T06:07:24.684Z,22.00
2022-09-30T06:09:54.175Z,22.00
2022-09-30T06:12:22.636Z,22.50
2022-09-30T06:14:51.577Z,22.00
2022-09-30T06:17:20.698Z,23.90
2022-09-30T06:19:52.922Z,24.20
2022-09-30T06:22:21.953Z,25.60
2022-09-30T06:24:55.000Z,21.70
2022-09-30T06:27:25.423Z,23.00
2022-09-30T06:29:54.073Z,24.30
2022-09-30T06:32:22.412Z,21.70
2022-09-30T06:34:52.021Z,25.80
2022-09-30T06:37:22.864Z,22.90
2022-09-30T06:39:52.199Z,22.80
2022-09-30T06:42:23.257Z,21.00
2022-09-30T06:44:53.557Z,24.90
2022-09-30T06:47:25.897Z,23.10
2022-09-30T06:49:59.234Z,23.20
2022-09-30T06:52:27.924Z,20.40
2022-09-30T06:54:59.477Z,24.90
2022-09-30T06:57:28.239Z,22.80
2022-09-30T06:59:59.780Z,21.40
2022-09-30T07:02:31.173Z,24.40
2022-09-30T07:04:59.949Z,24.30
2022-09-30T07:07:31.497Z,25.90
2022-09-30T07:10:00.513Z,25.40
2022-09-30T07:12:29.250Z,25.60
2022-09-30T07:14:57.755Z,24.50
2022-09-30T07:17:27.473Z,24.50
2022-09-30T07:19:55.880Z,23.30
2022-09-30T07:22:34.744Z,24.60
2022-09-30T07:25:04.580Z,24.20
2022-09-30T07:27:34.302Z,26.00
2022-09-30T07:30:16.087Z,23.40
2022-09-30T07:32:50.494Z,20.50
2022-09-30T07:35:20.019Z,23.00
2022-09-30T07:37:50.767Z,21.10
2022-09-30T07:40:19.926Z,20.10
2022-09-30T07:42:48.761Z,20.40
2022-09-30T07:45:19.072Z,22.30
2022-09-30T07:47:51.181Z,24.20
2022-09-30T07:50:22.162Z,23.10
2022-09-30T07:52:53.237Z,24.30
2022-09-30T07:55:23.468Z,24.10
2022-09-30T07:57:52.381Z,23.40
2022-09-30T08:00:41.657Z,22.20
2022-09-30T08:03:17.778Z,24.80
2022-09-30T08:05:48.776Z,23.20
2022-09-30T08:08:18.774Z,22.30
2022-09-30T08:10:47.309Z,19.30
2022-09-30T08:13:20.526Z,21.30
2022-09-30T08:15:52.598Z,20.40
2022-09-30T08:18:22.095Z,23.50
2022-09-30T08:20:51.324Z,26.00
2022-09-30T08:23:19.893Z,24.40
2022-09-30T08:25:49.196Z,25.20
2022-09-30T08:28:18.705Z,21.90
2022-09-30T08:30:47.433Z,19.80
2022-09-30T08:33:15.892Z,21.70
2022-09-30T08:35:44.238Z,20.10
2022-09-30T08:38:13.173Z,23.10
2022-09-30T08:40:59.133Z,25.70
2022-09-30T08:43:56.102Z,22.70
2022-09-30T08:46:35.407Z,22.10
2022-09-30T08:49:22.766Z,22.80
2022-09-30T08:51:54.451Z,23.90
2022-09-30T08:54:26.930Z,26.10
2022-09-30T08:56:59.322Z,25.30
2022-09-30T09:00:00.459Z,22.70
2022-09-30T09:02:46.835Z,24.00
2022-09-30T09:05:52.737Z,26.20
2022-09-30T09:08:22.029Z,24.60
2022-09-30T09:11:15.778Z,25.80
2022-09-30T09:14:09.553Z,25.20
2022-09-30T09:17:16.501Z,29.40
2022-09-30T09:19:59.497Z,28.40
2022-09-30T09:22:31.532Z,25.70
2022-09-30T09:25:29.163Z,25.50
2022-09-30T09:28:00.989Z,26.50
2022-09-30T09:30:44.175Z,27.50
2022-09-30T09:33:30.021Z,25.10
2022-09-30T09:36:08.299Z,26.70
2022-09-30T09:39:00.961Z,28.70
2022-09-30T09:41:36.442Z,31.80
2022-09-30T09:44:25.184Z,30.30
2022-09-30T09:47:06.413Z,28.30
2022-09-30T09:49:41.044Z,31.10
2022-09-30T09:52:13.055Z,26.80
2022-09-30T09:54:45.350Z,29.60
2022-09-30T09:57:17.756Z,29.10
2022-09-30T10:00:24.029Z,28.10
2022-09-30T10:03:22.008Z,27.70
2022-09-30T10:06:10.384Z,27.50
2022-09-30T10:08:52.313Z,29.60
2022-09-30T10:11:24.866Z,27.30
2022-09-30T10:13:59.342Z,28.90
2022-09-30T10:16:38.349Z,27.80
2022-09-30T10:19:25.779Z,27.80
2022-09-30T10:22:14.767Z,25.20
2022-09-30T10:24:44.624Z,29.50
2022-09-30T10:27:32.925Z,26.70
2022-09-30T10:30:01.717Z,26.10
2022-09-30T10:32:30.773Z,26.10
2022-09-30T10:35:17.411Z,29.70
2022-09-30T10:37:56.876Z,26.90
2022-09-30T10:40:29.119Z,27.90
2022-09-30T10:42:59.035Z,27.70
2022-09-30T10:45:37.364Z,27.60
2022-09-30T10:48:15.095Z,28.40
2022-09-30T10:50:50.730Z,26.10
2022-09-30T10:53:26.443Z,26.40
2022-09-30T10:55:54.856Z,27.80
2022-09-30T11:02:08.615Z,25.90
2022-09-30T11:04:56.208Z,22.50
2022-09-30T11:07:30.512Z,20.80
2022-09-30T11:10:03.381Z,24.20
2022-09-30T11:12:38.636Z,21.80
2022-09-30T11:15:24.586Z,22.60
2022-09-30T11:18:01.803Z,24.20
2022-09-30T11:20:36.086Z,24.10
2022-09-30T11:23:16.750Z,21.50
2022-09-30T11:25:59.248Z,20.10
2022-09-30T11:28:31.351Z,22.30
2022-09-30T11:31:31.606Z,19.40
2022-09-30T11:34:41.191Z,22.80
2022-09-30T11:37:35.855Z,18.90
2022-09-30T11:40:16.704Z,19.70
2022-09-30T11:43:14.331Z,21.10
2022-09-30T11:46:05.452Z,20.40
2022-09-30T11:48:58.436Z,16.50
2022-09-30T11:51:57.689Z,15.40
2022-09-30T11:55:06.584Z,18.50
2022-09-30T11:58:00.659Z,14.50
2022-09-30T12:00:35.612Z,13.20
2022-09-30T12:03:19.079Z,11.50
2022-09-30T12:05:54.243Z,12.10
2022-09-30T12:08:25.085Z,11.40
2022-09-30T12:10:57.983Z,10.60
2022-09-30T12:13:52.482Z,7.80
2022-09-30T12:16:25.750Z,10.10
2022-09-30T12:19:00.991Z,10.20
2022-09-30T12:21:40.327Z,9.80
2022-09-30T12:24:29.489Z,9.80
2022-09-30T12:27:02.254Z,8.50
2022-09-30T12:30:06.847Z,9.60
2022-09-30T12:33:11.310Z,10.00
2022-09-30T12:35:54.970Z,9.40
2022-09-30T12:38:42.437Z,8.90
2022-09-30T12:41:27.462Z,11.40
2022-09-30T12:44:02.109Z,10.50
2022-09-30T12:46:40.395Z,10.50
2022-09-30T12:49:20.564Z,11.10
2022-09-30T12:52:15.108Z,11.70
2022-09-30T12:54:53.938Z,11.20
2022-09-30T12:57:40.143Z,11.20
2022-09-30T13:00:21.070Z,11.70
2022-09-30T13:03:18.690Z,12.40
2022-09-30T13:06:07.071Z,11.40
2022-09-30T13:08:44.414Z,11.90
2022-09-30T13:11:37.567Z,10.30
2022-09-30T13:14:22.350Z,12.10
2022-09-30T13:17:06.994Z,13.60
2022-09-30T13:19:41.248Z,11.40
2022-09-30T13:22:25.361Z,12.30
2022-09-30T13:25:04.269Z,12.20
2022-09-30T13:27:43.644Z,14.30
2022-09-30T13:30:18.966Z,11.10
2022-09-30T13:33:07.627Z,10.00
2022-09-30T13:36:31.727Z,11.50
2022-09-30T13:39:21.353Z,11.70
2022-09-30T13:42:03.194Z,8.80
2022-09-30T13:44:57.220Z,9.80
2022-09-30T13:47:52.058Z,7.40
2022-09-30T13:50:54.902Z,7.70
2022-09-30T13:53:31.232Z,8.80
2022-09-30T13:56:07.170Z,7.60
2022-09-30T13:59:03.868Z,8.90
2022-09-30T14:02:10.959Z,8.80
2022-09-30T14:05:15.210Z,8.60
2022-09-30T14:07:51.773Z,7.60
2022-09-30T14:10:33.016Z,8.20
2022-09-30T14:13:28.585Z,7.60
2022-09-30T14:16:35.149Z,8.90
2022-09-30T14:19:08.927Z,8.50
2022-09-30T14:21:49.435Z,10.10
2022-09-30T14:24:33.957Z,9.20
2022-09-30T14:27:33.380Z,7.50
2022-09-30T14:30:13.192Z,7.80
2022-09-30T14:32:51.369Z,7.40
2022-09-30T14:35:23.758Z,7.60
2022-09-30T14:37:55.728Z,7.10
2022-09-30T14:40:42.778Z,6.70
2022-09-30T14:43:18.438Z,7.50
2022-09-30T14:45:54.497Z,6.90
2022-09-30T14:48:30.451Z,7.40
2022-09-30T14:51:23.542Z,7.30
2022-09-30T14:54:04.332Z,6.70
2022-09-30T14:56:36.483Z,7.20
2022-09-30T14:59:22.449Z,7.80
2022-09-30T15:01:55.983Z,8.40
2022-09-30T15:04:30.598Z,8.50
2022-09-30T15:07:03.694Z,6.90
2022-09-30T15:09:47.034Z,7.10
2022-09-30T15:12:19.659Z,7.50
2022-09-30T15:14:50.164Z,6.70
2022-09-30T15:17:21.521Z,6.80
2022-09-30T15:19:51.165Z,7.40
2022-09-30T15:22:21.589Z,8.60
2022-09-30T15:24:52.233Z,5.80
2022-09-30T15:27:36.377Z,7.10
2022-09-30T15:30:17.965Z,6.30
2022-09-30T15:32:50.364Z,6.80
2022-09-30T15:35:24.870Z,6.10
2022-09-30T15:38:05.943Z,5.70
2022-09-30T15:40:50.956Z,5.90
2022-09-30T15:43:43.295Z,5.80
2022-09-30T15:46:20.021Z,6.20
2022-09-30T15:48:49.324Z,7.80
2022-09-30T15:51:27.978Z,6.00
2022-09-30T15:54:02.377Z,5.30
2022-09-30T15:56:38.091Z,7.30
2022-09-30T15:59:09.405Z,6.20
2022-09-30T16:01:43.636Z,6.00
2022-09-30T16:04:15.667Z,6.50
2022-09-30T16:06:58.676Z,7.40
2022-09-30T16:09:36.569Z,6.10
2022-09-30T16:12:19.516Z,7.10
2022-09-30T16:15:01.500Z,7.80
2022-09-30T16:17:33.093Z,7.70
2022-09-30T16:20:21.127Z,10.60
2022-09-30T16:22:53.698Z,6.00
2022-09-30T16:25:28.198Z,6.60
2022-09-30T16:28:13.409Z,6.60
2022-09-30T16:30:55.712Z,7.40
2022-09-30T16:33:24.294Z,5.80
2022-09-30T16:35:53.338Z,6.20
2022-09-30T16:38:22.123Z,7.90
2022-09-30T16:40:51.023Z,8.10
2022-09-30T16:43:19.975Z,8.00
2022-09-30T16:45:53.114Z,7.10
2022-09-30T16:48:22.714Z,8.00
2022-09-30T16:51:04.469Z,6.80
2022-09-30T16:53:33.168Z,8.00
2022-09-30T16:56:02.061Z,7.20
2022-09-30T16:58:31.876Z,9.00
2022-09-30T17:01:00.788Z,9.20
2022-09-30T17:03:31.233Z,11.10
2022-09-30T17:06:00.508Z,9.60
2022-09-30T17:08:31.341Z,18.10
2022-09-30T17:10:59.802Z,12.10
2022-09-30T17:13:28.892Z,12.90
2022-09-30T17:15:58.110Z,10.80
2022-09-30T17:18:28.255Z,10.80
2022-09-30T17:20:57.042Z,11.90
2022-09-30T17:23:26.226Z,13.00
2022-09-30T17:25:55.347Z,10.80
2022-09-30T17:28:23.840Z,12.60
2022-09-30T17:30:52.811Z,10.70
2022-09-30T17:33:23.792Z,10.90
2022-09-30T17:36:02.527Z,11.30
2022-09-30T17:38:34.903Z,11.80
2022-09-30T17:41:22.933Z,11.40
2022-09-30T17:43:52.636Z,13.00
2022-09-30T17:46:23.798Z,11.80
2022-09-30T17:48:56.910Z,13.60
2022-09-30T17:51:26.853Z,15.70
2022-09-30T17:53:58.737Z,13.60
2022-09-30T17:56:29.482Z,23.40
2022-09-30T17:59:00.807Z,16.40
2022-09-30T18:01:31.137Z,15.80
2022-09-30T18:04:01.752Z,21.10
2022-09-30T18:06:33.253Z,19.00
2022-09-30T18:09:03.595Z,17.00
2022-09-30T18:11:39.376Z,15.50
2022-09-30T18:14:13.943Z,15.80
2022-09-30T18:16:45.400Z,15.10
2022-09-30T18:19:17.704Z,14.20
2022-09-30T18:21:47.316Z,14.80
2022-09-30T18:24:17.390Z,14.30
2022-09-30T18:26:47.928Z,13.90
2022-09-30T18:29:18.546Z,14.40
2022-09-30T18:31:47.602Z,14.80
2022-09-30T18:34:16.239Z,17.80
2022-09-30T18:36:46.159Z,14.90
2022-09-30T18:39:16.790Z,17.10
2022-09-30T18:41:46.453Z,15.10
2022-09-30T18:44:15.890Z,18.50
2022-09-30T18:46:45.016Z,16.00
2022-09-30T18:49:15.242Z,21.00
2022-09-30T18:51:44.835Z,21.90
2022-09-30T18:54:18.155Z,17.80
2022-09-30T18:56:52.430Z,15.20
2022-09-30T18:59:23.910Z,16.60
2022-09-30T19:01:56.679Z,18.60
2022-09-30T19:04:28.948Z,21.80
2022-09-30T19:06:59.723Z,22.20
2022-09-30T19:09:29.269Z,21.00
2022-09-30T19:12:00.366Z,17.90
2022-09-30T19:14:31.662Z,19.30
2022-09-30T19:17:04.078Z,20.90
2022-09-30T19:19:41.703Z,19.60
2022-09-30T19:22:11.434Z,23.30
2022-09-30T19:24:43.625Z,24.80
2022-09-30T19:27:12.748Z,25.10
2022-09-30T19:29:41.991Z,31.10
2022-09-30T19:32:13.042Z,28.80
2022-09-30T19:34:43.185Z,23.60
2022-09-30T19:37:25.215Z,23.10
2022-09-30T19:39:57.226Z,21.80
2022-09-30T19:42:28.373Z,22.80
2022-09-30T19:44:57.876Z,25.10
2022-09-30T19:47:30.856Z,24.00
2022-09-30T19:50:04.568Z,24.30
2022-09-30T19:52:36.745Z,25.10
2022-09-30T19:55:16.339Z,25.80
2022-09-30T19:57:46.293Z,22.40
2022-09-30T20:00:15.270Z,23.90
2022-09-30T20:02:44.378Z,26.40
2022-09-30T20:05:14.141Z,23.30
2022-09-30T20:07:43.237Z,26.20
2022-09-30T20:10:12.494Z,23.00
2022-09-30T20:12:42.685Z,25.30
2022-09-30T20:15:31.064Z,26.90
2022-09-30T20:18:02.270Z,23.90
2022-09-30T20:20:39.032Z,21.40
2022-09-30T20:23:07.672Z,23.20
2022-09-30T20:25:38.962Z,24.60
2022-09-30T20:28:09.009Z,26.20
2022-09-30T20:30:44.071Z,22.80
2022-09-30T20:33:20.771Z,23.70
2022-09-30T20:35:49.763Z,23.30
2022-09-30T20:38:25.185Z,24.60
2022-09-30T20:40:58.879Z,22.60
2022-09-30T20:43:30.696Z,24.00
2022-09-30T20:46:02.188Z,24.60
2022-09-30T20:48:35.423Z,23.90
2022-09-30T20:51:09.336Z,24.20
2022-09-30T20:53:40.390Z,24.60
2022-09-30T20:56:11.615Z,24.90
2022-09-30T20:58:40.858Z,27.10
2022-09-30T21:01:20.287Z,21.70
2022-09-30T21:03:50.733Z,25.40
2022-09-30T21:06:29.623Z,20.10
2022-09-30T21:08:58.051Z,23.20
2022-09-30T21:11:27.566Z,20.60
2022-09-30T21:13:56.229Z,21.90
2022-09-30T21:16:25.748Z,22.30
2022-09-30T21:18:54.744Z,21.50
2022-09-30T21:21:25.064Z,24.50
2022-09-30T21:23:58.959Z,22.30
2022-09-30T21:26:28.237Z,21.90
2022-09-30T21:28:56.640Z,21.00
2022-09-30T21:31:27.615Z,20.80
2022-09-30T21:33:58.762Z,20.40
2022-09-30T21:36:28.532Z,22.00
2022-09-30T21:39:04.515Z,20.50
2022-09-30T21:41:36.892Z,23.30
2022-09-30T21:44:05.265Z,21.10
2022-09-30T21:46:35.182Z,21.20
2022-09-30T21:49:16.890Z,21.40
2022-09-30T21:51:45.745Z,22.30
2022-09-30T21:54:15.554Z,21.50
2022-09-30T21:56:44.169Z,22.50
2022-09-30T21:59:15.397Z,24.10
2022-09-30T22:01:44.788Z,21.80
2022-09-30T22:04:13.470Z,22.80
2022-09-30T22:06:41.860Z,18.70
2022-09-30T22:09:10.597Z,22.10
2022-09-30T22:11:39.013Z,18.00
2022-09-30T22:14:07.908Z,19.60
2022-09-30T22:16:36.340Z,21.20
2022-09-30T22:19:07.536Z,20.40
2022-09-30T22:21:37.774Z,23.20
2022-09-30T22:24:09.346Z,22.20
2022-09-30T22:26:38.214Z,21.90
2022-09-30T22:29:13.340Z,23.40
2022-09-30T22:31:41.658Z,23.70
2022-09-30T22:34:33.583Z,20.70
2022-09-30T22:37:21.589Z,24.70
2022-09-30T22:39:49.982Z,23.20
2022-09-30T22:42:18.558Z,21.90
2022-09-30T22:44:48.261Z,22.30
2022-09-30T22:47:17.257Z,23.10
2022-09-30T22:49:46.864Z,20.80
2022-09-30T22:52:15.258Z,21.30
2022-09-30T22:54:43.512Z,24.30
2022-09-30T22:57:12.983Z,22.40
2022-09-30T22:59:41.980Z,24.00
2022-09-30T23:02:10.235Z,23.80
2022-09-30T23:04:38.479Z,22.70
2022-09-30T23:07:07.887Z,22.90
2022-09-30T23:09:36.351Z,24.80
2022-09-30T23:12:09.742Z,24.00
2022-09-30T23:14:38.689Z,23.50
2022-09-30T23:17:06.916Z,24.00
2022-09-30T23:19:38.081Z,24.80
2022-09-30T23:22:06.553Z,24.20
2022-09-30T23:24:35.016Z,25.00
2022-09-30T23:27:03.437Z,24.40
2022-09-30T23:29:31.885Z,22.70
2022-09-30T23:32:00.707Z,24.90
2022-09-30T23:34:29.757Z,23.10
2022-09-30T23:36:58.056Z,22.40
2022-09-30T23:39:26.939Z,25.10
2022-09-30T23:41:56.532Z,22.70
2022-09-30T23:44:25.330Z,22.20
2022-09-30T23:47:17.813Z,23.70
2022-09-30T23:49:46.589Z,22.80
2022-09-30T23:52:15.161Z,22.70
2022-09-30T23:54:44.055Z,21.80
2022-09-30T23:57:12.453Z,21.40
2022-09-30T23:59:42.035Z,23.70
